Flight Track Log - Related Links

Times and Time Zones

All times are in EDT time to prevent confusion due to time zone crossing. See the N479SA flight status page for this flight to view local times or setup timezone preferences in your user account.

Time Position Orientation Groundspeed Altitude Reporting Facility
EDT Latitude Longitude Course Direction KTS MPH feet Rate Location/Type
Thu 03:30:05 PM 39.0833 -94.6167 218° Southwest 111 128 2,300  Level Kansas City TRACON
Thu 03:31:11 PM 39.0667 -94.6333 218° Southwest 125 144 3,400 1,143 Climbing Kansas City TRACON
Thu 03:32:11 PM 39.0833 -94.6833 293° West 154 177 4,700 1,230 Climbing Kansas City TRACON
Thu 03:33:13 PM 39.1172 -94.7092 329° Northwest 137 158 5,900 629 Climbing Kansas City Center
Thu 03:34:15 PM 39.1497 -94.7436 321° Northwest 159 183 6,000 435 Climbing Kansas City Center
Thu 03:35:17 PM 39.1942 -94.7572 347° North 185 213 6,800 960 Climbing Kansas City Center
Thu 03:36:20 PM 39.2408 -94.7331 22° Northeast 163 188 8,000 816 Climbing Kansas City Center
Thu 03:37:22 PM 39.2789 -94.7078 27° Northeast 161 185 8,500 677 Climbing Kansas City Center
Thu 03:38:24 PM 39.3264 -94.6775 26° Northeast 169 194 9,400 919 Climbing Kansas City Center
Thu 03:39:26 PM 39.3631 -94.6483 32° Northeast 163 188 10,400 871 Climbing Kansas City Center
Thu 03:40:28 PM 39.4044 -94.6128 34° Northeast 161 185 11,200 726 Climbing Kansas City Center
Thu 03:41:30 PM 39.4428 -94.5800 33° Northeast 170 196 11,900 823 Climbing Kansas City Center
Thu 03:42:32 PM 39.4856 -94.5383 37° Northeast 173 199 12,900 871 Climbing Kansas City Center
Thu 03:43:34 PM 39.5228 -94.4986 39° Northeast 178 205 13,700 823 Climbing Kansas City Center
Thu 03:44:36 PM 39.5639 -94.4514 42° Northeast 178 205 14,600 726 Climbing Kansas City Center
Thu 03:45:38 PM 39.5886 -94.3942 61° Northeast 197 227 15,200 726 Climbing Kansas City Center
Thu 03:46:40 PM 39.6178 -94.3261 61° Northeast 194 223 16,100 726 Climbing Kansas City Center
Thu 03:47:42 PM 39.6406 -94.2664 64° Northeast 193 222 16,700 629 Climbing Kansas City Center
Thu 03:48:44 PM 39.6681 -94.1969 63° Northeast 193 222 17,400 677 Climbing Kansas City Center
Thu 03:49:46 PM 39.6903 -94.1386 64° Northeast 189 217 18,100 677 Climbing Kansas City Center
Thu 03:50:48 PM 39.7164 -94.0697 64° Northeast 191 220 18,800 581 Climbing Kansas City Center
Thu 03:51:50 PM 39.7394 -94.0097 63° Northeast 194 223 19,300 532 Climbing Kansas City Center
Thu 03:52:52 PM 39.7672 -93.9375 63° Northeast 199 229 19,900 532 Climbing Kansas City Center
Thu 03:53:54 PM 39.7892 -93.8772 65° Northeast 194 223 20,400 480 Climbing Kansas City Center
Thu 03:54:57 PM 39.8150 -93.8069 64° Northeast 198 228 20,900 288 Climbing Kansas City Center
Thu 03:55:59 PM 39.8408 -93.7381 64° Northeast 212 244 21,000 48 Climbing Kansas City Center
Thu 03:57:01 PM 39.8708 -93.6625 63° Northeast 230 265 21,000  Level Kansas City Center
Thu 03:58:03 PM 39.8997 -93.5869 63° Northeast 235 270 21,000  Level Kansas City Center
Thu 03:59:05 PM 39.9278 -93.5083 65° Northeast 240 276 21,000  Level Kansas City Center
Thu 04:00:08 PM 39.9625 -93.4136 64° Northeast 243 280 21,000  Level Kansas City Center
Thu 04:01:10 PM 39.9936 -93.3344 63° Northeast 246 283 21,000  Level Kansas City Center
Thu 04:02:12 PM 40.0228 -93.2561 64° Northeast 244 281 21,000  Level Kansas City Center
Thu 04:03:14 PM 40.0503 -93.1772 65° Northeast 241 277 21,000  Level Kansas City Center
Thu 04:04:16 PM 40.0797 -93.1011 63° Northeast 239 275 21,000  Level Kansas City Center
Thu 04:05:18 PM 40.1100 -93.0142 65° Northeast 236 272 21,000  Level Kansas City Center
Thu 04:06:20 PM 40.1450 -92.9281 62° Northeast 239 275 21,000  Level Kansas City Center
Thu 04:07:22 PM 40.1708 -92.8528 66° East 237 273 21,000  Level Kansas City Center
Thu 04:08:24 PM 40.2028 -92.7650 64° Northeast 239 275 21,000  Level Kansas City Center
Thu 04:09:26 PM 40.2297 -92.6914 64° Northeast 235 270 21,000  Level Kansas City Center
Thu 04:10:28 PM 40.2606 -92.6033 65° Northeast 237 273 21,000  Level Kansas City Center
Thu 04:11:30 PM 40.2847 -92.5272 67° East 238 274 21,000  Level Kansas City Center
Thu 04:12:32 PM 40.3203 -92.4431 61° Northeast 236 272 21,000  Level Kansas City Center
Thu 04:13:34 PM 40.3450 -92.3731 65° Northeast 239 275 21,000  Level Kansas City Center
Thu 04:14:36 PM 40.3753 -92.2878 65° Northeast 238 274 21,000  Level Kansas City Center
Thu 04:15:38 PM 40.4025 -92.2117 65° Northeast 235 270 21,000  Level Kansas City Center
Thu 04:16:40 PM 40.4297 -92.1344 65° Northeast 234 269 21,000  Level Kansas City Center
Thu 04:17:42 PM 40.4617 -92.0439 65° Northeast 232 267 21,000  Level Kansas City Center
Thu 04:18:45 PM 40.4889 -91.9664 65° Northeast 234 269 21,000  Level Kansas City Center
Thu 04:19:47 PM 40.5167 -91.8894 65° Northeast 234 269 21,000  Level Kansas City Center
Thu 04:20:32 PM 40.5381 -91.8300 65° Northeast 230 265 21,000  Level Chicago Center
Thu 04:21:34 PM 40.5633 -91.7531 67° East 230 265 21,000  Level Chicago Center
Thu 04:22:36 PM 40.5933 -91.6783 62° Northeast 234 269 21,000  Level Chicago Center
Thu 04:23:38 PM 40.6183 -91.6025 67° East 229 264 21,000  Level Chicago Center
Thu 04:24:40 PM 40.6511 -91.5119 64° Northeast 230 265 21,000  Level Chicago Center
Thu 04:25:42 PM 40.6764 -91.4369 66° East 228 262 21,000  Level Chicago Center
Thu 04:26:44 PM 40.7042 -91.3606 64° Northeast 231 266 21,000  Level Chicago Center
Thu 04:27:46 PM 40.7289 -91.2822 67° East 230 265 21,000  Level Chicago Center
Thu 04:28:49 PM 40.7561 -91.2075 64° Northeast 227 261 21,000  Level Chicago Center
Thu 04:29:51 PM 40.7831 -91.1300 65° Northeast 232 267 21,000  Level Chicago Center
Thu 04:30:53 PM 40.8144 -91.0389 66° East 228 262 21,000  Level Chicago Center
Thu 04:31:55 PM 40.8394 -90.9617 67° East 228 262 21,000  Level Chicago Center
Thu 04:32:57 PM 40.8661 -90.8861 65° Northeast 226 260 21,000  Level Chicago Center
Thu 04:33:59 PM 40.8922 -90.8114 65° Northeast 224 258 21,000  Level Chicago Center
Thu 04:35:01 PM 40.9172 -90.7356 66° East 225 259 21,000  Level Chicago Center
Thu 04:36:03 PM 40.9433 -90.6600 65° Northeast 226 260 21,000 -48 Level Chicago Center
Thu 04:37:05 PM 40.9686 -90.5828 67° East 228 262 20,900  Descending Chicago Center
Thu 04:38:07 PM 40.9994 -90.4928 66° East 224 258 21,000 48 Climbing Chicago Center
Thu 04:39:10 PM 41.0247 -90.4156 67° East 226 260 21,000  Level Chicago Center
Thu 04:40:12 PM 41.0517 -90.3378 65° Northeast 232 267 21,000  Level Chicago Center
Thu 04:41:14 PM 41.0767 -90.2606 67° East 228 262 21,000  Level Chicago Center
Thu 04:42:16 PM 41.1039 -90.1822 65° Northeast 232 267 21,000 -48 Level Chicago Center
Thu 04:43:18 PM 41.1297 -90.1044 66° East 231 266 20,900  Descending Chicago Center
Thu 04:44:20 PM 41.1614 -90.0086 66° East 236 272 21,000  Climbing Chicago Center
Thu 04:45:22 PM 41.1881 -89.9294 66° East 234 269 20,900 -48 Descending Chicago Center
Thu 04:46:24 PM 41.2133 -89.8506 67° East 232 267 20,900 48 Level Chicago Center
Thu 04:47:26 PM 41.2425 -89.7728 63° Northeast 233 268 21,000  Climbing Chicago Center
Thu 04:48:28 PM 41.2797 -89.7047 54° Northeast 230 265 20,900 -48 Descending Chicago Center
Thu 04:49:30 PM 41.3167 -89.6364 54° Northeast 228 262 20,900  Level Chicago Center
Thu 04:50:32 PM 41.3433 -89.5586 65° Northeast 230 265 20,900  Level Chicago Center
Thu 04:51:35 PM 41.3775 -89.4633 64° Northeast 237 273 20,900  Level Chicago Center
Thu 04:52:37 PM 41.4031 -89.3808 68° East 239 275 20,900  Level Chicago Center
Thu 04:53:39 PM 41.4292 -89.2992 67° East 238 274 20,900  Level Chicago Center
Thu 04:54:41 PM 41.4558 -89.2167 67° East 242 278 20,900  Level Chicago Center
Thu 04:55:43 PM 41.4794 -89.1356 69° East 243 280 20,900  Level Chicago Center
Thu 04:56:45 PM 41.5106 -89.0350 68° East 242 278 20,900  Level Chicago Center
Thu 04:57:47 PM 41.5367 -88.9533 67° East 241 277 20,900  Level Chicago Center
Thu 04:58:49 PM 41.5619 -88.8689 68° East 243 280 20,900  Level Chicago Center
Thu 04:59:51 PM 41.5881 -88.7867 67° East 242 278 20,900  Level Chicago Center
Thu 05:00:53 PM 41.6136 -88.7025 68° East 243 280 20,900  Level Chicago Center
Thu 05:01:55 PM 41.6397 -88.6186 67° East 244 281 20,900  Level Chicago Center
Thu 05:02:57 PM 41.6706 -88.5183 68° East 244 281 20,900  Level Chicago Center
Thu 05:04:00 PM 41.6956 -88.4333 68° East 245 282 20,900  Level Chicago Center
Thu 05:05:02 PM 41.7219 -88.3503 67° East 244 281 20,900  Level Chicago Center
Thu 05:06:04 PM 41.7461 -88.2661 69° East 242 278 20,900  Level Chicago Center
Thu 05:07:06 PM 41.7714 -88.1833 68° East 241 277 20,900  Level Chicago Center
Thu 05:08:08 PM 41.7964 -88.1017 68° East 238 274 20,900  Level Chicago Center
Thu 05:09:10 PM 41.8253 -88.0033 68° East 237 273 20,900  Level Chicago Center
Thu 05:10:12 PM 41.8500 -87.9192 68° East 239 275 20,900  Level Chicago Center
Thu 05:11:14 PM 41.8753 -87.8358 68° East 241 277 20,900  Level Chicago Center
Thu 05:12:16 PM 41.8994 -87.7531 69° East 240 276 20,900  Level Chicago Center
Thu 05:13:18 PM 41.9244 -87.6686 68° East 242 278 20,900  Level Chicago Center
Thu 05:14:20 PM 41.9500 -87.5853 68° East 243 280 20,900  Level Chicago Center
Thu 05:15:23 PM 41.9792 -87.4822 69° East 246 283 20,900  Level Chicago Center
Thu 05:16:25 PM 41.9967 -87.3917 75° East 251 289 20,900  Level Chicago Center
Thu 05:17:27 PM 42.0003 -87.2994 87° East 247 284 20,900  Level Chicago Center
Thu 05:18:29 PM 42.0053 -87.2067 86° East 249 287 20,900  Level Chicago Center
Thu 05:19:31 PM 42.0103 -87.1142 86° East 248 285 20,900  Level Chicago Center
Thu 05:20:33 PM 42.0169 -87.0039 85° East 248 285 20,900  Level Chicago Center
Thu 05:21:35 PM 42.0222 -86.9136 85° East 245 282 20,900 -581 Level Chicago Center
Thu 05:22:37 PM 42.0269 -86.8142 86° East 260 299 19,700 -968 Descending Chicago Center
Thu 05:23:39 PM 42.0331 -86.7069 86° East 281 323 18,900 -387 Descending Chicago Center
Thu 05:24:41 PM 42.0717 -86.6192 59° Northeast 259 298 18,900  Level Chicago Center
Thu 05:25:44 PM 42.1025 -86.5350 64° Northeast 252 290 18,900  Level Chicago Center
Thu 05:26:46 PM 42.1322 -86.4536 64° Northeast 244 281 18,900  Level Chicago Center
Thu 05:27:48 PM 42.1614 -86.3719 64° Northeast 242 278 18,900  Level Chicago Center
Thu 05:28:50 PM 42.1964 -86.2756 64° Northeast 239 275 18,900 -484 Level Chicago Center
Thu 05:29:52 PM 42.2281 -86.1867 64° Northeast 255 293 17,900 -823 Descending Chicago Center
Thu 05:30:54 PM 42.2614 -86.0958 64° Northeast 267 307 17,200 -774 Descending Chicago Center
Thu 05:31:56 PM 42.2906 -86.0103 65° Northeast 272 313 16,300 -1,065 Descending Chicago Center
Thu 05:32:58 PM 42.3297 -85.8989 65° Northeast 275 316 15,000 -629 Descending Chicago Center
Thu 05:34:00 PM 42.3622 -85.8097 64° Northeast 267 307 15,000 -726 Level Chicago Center
Thu 05:35:02 PM 42.3906 -85.7231 66° East 257 296 13,500 -1,056 Descending Chicago Center
Thu 05:36:05 PM 42.4244 -85.6300 64° Northeast 269 310 12,800 -912 Descending Chicago Center
Thu 05:37:07 PM 42.4561 -85.5381 65° Northeast 271 312 11,600 -1,065 Descending Chicago Center
Thu 05:38:09 PM 42.4950 -85.4306 64° Northeast 268 308 10,600 -1,258 Descending Chicago Center
Thu 05:39:11 PM 42.5228 -85.3439 66° East 258 297 9,000 -1,258 Descending Chicago Center
Thu 05:40:13 PM 42.5531 -85.2608 64° Northeast 251 289 8,000 -968 Descending Chicago Center
Thu 05:41:15 PM 42.5786 -85.1806 67° East 240 276 7,000 -919 Descending Chicago Center
Thu 05:42:17 PM 42.5894 -85.1086 78° East 204 235 6,100 -1,258 Descending Chicago Center
Thu 05:43:19 PM 42.6025 -85.0222 78° East 197 227 4,400 -1,500 Descending Chicago Center
Thu 05:44:21 PM 42.6119 -84.9522 80° East 191 220 3,000 -677 Descending Chicago Center
Thu 05:45:23 PM 42.6261 -84.8775 76° East 199 229 3,000  Level Chicago Center
Thu 05:46:26 PM 42.6442 -84.8017 72° East 207 238 3,000  Level Chicago Center
Thu 05:47:28 PM 42.6614 -84.7294 72° East 206 237 3,000  Level Chicago Center
Thu 05:48:30 PM 42.6806 -84.6561 70° East 201 231 3,000  Level Chicago Center
Thu 05:50:16 PM 42.6964 -84.5244 81° East 190 219 3,000 -36 Level Cleveland Center
Thu 05:51:18 PM 42.7061 -84.4619 78° East 176 203 2,900 -48 Descending Cleveland Center
Thu 05:52:20 PM 42.7175 -84.4003 76° East 160 184 2,900 48 Level Cleveland Center
Thu 05:53:22 PM 42.7361 -84.3486 64° Northeast 159 183 3,000 48 Climbing Cleveland Center
Thu 05:54:24 PM 42.7706 -84.3658 340° North 138 159 3,000  Level Cleveland Center
Thu 05:55:26 PM 42.7742 -84.4050 277° West 114 131 3,000 -145 Level Cleveland Center
Thu 05:56:28 PM 42.7758 -84.4419 274° West 102 117 2,700 -435 Descending Cleveland Center
Thu 05:57:30 PM 42.7764 -84.4847 271° West 105 121 2,100 -387 Descending Cleveland Center
Thu 05:58:32 PM 42.7781 -84.5283 273° West 108 124 1,900 -194 Descending Cleveland Center

Login

Don't have an account? Register now (free) for customized features, flight alerts, and more!